sim
Sign-in with your pilot id or email,
or register
Callsign
Passwort

Schedule Details

Flight Number: UAE508
Departure: Dubai International Airport (OMDB) at 11:50
Arrival: Mumbai Chhatrapati Shivaji International Airport (VABB) at 15:05
Route: Emirates Passenger Schedule. Enter filed route here before submitting Pirep.

Weather Information
Getting current METAR information for OMDB 160000Z 13009KT 100V160 CAVOK 23/19 Q1014 NOSIG
Getting current METAR information for VABB 160000Z 00000KT 2100 HZ NSC 24/19 Q1012 NOSIG

Schedule Frequency

Route Map